createdAt,value
2023-03-27T00:00:42.646Z,12.3
2023-03-27T00:03:44.312Z,13.2
2023-03-27T00:06:33.851Z,19.5
2023-03-27T00:09:21.839Z,18.1
2023-03-27T00:12:09.778Z,15.9
2023-03-27T00:14:57.230Z,16.6
2023-03-27T00:17:45.625Z,12.9
2023-03-27T00:20:35.080Z,14.9
2023-03-27T00:23:23.799Z,15.1
2023-03-27T00:26:14.084Z,14.5
2023-03-27T00:29:01.680Z,12.5
2023-03-27T00:31:49.413Z,8.9
2023-03-27T00:34:42.485Z,9.9
2023-03-27T00:37:30.016Z,11.9
2023-03-27T00:40:17.596Z,10.5
2023-03-27T00:43:06.402Z,9.5
2023-03-27T00:46:12.522Z,15.5
2023-03-27T00:49:12.909Z,9.1
2023-03-27T00:52:01.374Z,13.9
2023-03-27T00:54:51.946Z,8.5
2023-03-27T00:57:41.525Z,12.8
2023-03-27T01:00:34.608Z,11.3
2023-03-27T01:03:22.678Z,11
2023-03-27T01:06:14.375Z,12
2023-03-27T01:09:02.400Z,15.9
2023-03-27T01:11:50.710Z,11
2023-03-27T01:14:52.203Z,11.4
2023-03-27T01:17:51.918Z,13.9
2023-03-27T01:20:54.542Z,12.9
2023-03-27T01:24:13.395Z,16.6
2023-03-27T01:27:38.601Z,11.5
2023-03-27T01:30:49.171Z,11.6
2023-03-27T01:33:44.516Z,12.5
2023-03-27T01:36:48.919Z,10.2
2023-03-27T01:39:56.585Z,10.9
2023-03-27T01:42:58.550Z,10.6
2023-03-27T01:45:52.797Z,9.9
2023-03-27T01:48:48.401Z,14.7
2023-03-27T01:51:43.015Z,7
2023-03-27T01:54:35.733Z,8.1
2023-03-27T01:57:26.654Z,9.9
2023-03-27T02:00:19.576Z,8.7
2023-03-27T02:03:11.562Z,10.5
2023-03-27T02:06:03.712Z,12.1
2023-03-27T02:08:57.282Z,5.4
2023-03-27T02:11:49.644Z,5.8
2023-03-27T02:14:43.670Z,6.4
2023-03-27T02:17:36.392Z,11.4
2023-03-27T02:20:29.394Z,7.5
2023-03-27T02:23:17.816Z,5.4
2023-03-27T02:26:07.531Z,4.5
2023-03-27T02:28:58.471Z,4.8
2023-03-27T02:31:59.273Z,5.1
2023-03-27T02:35:00.016Z,7.2
2023-03-27T02:37:57.683Z,8.4
2023-03-27T02:40:58.373Z,5.8
2023-03-27T02:43:54.484Z,6.3
2023-03-27T02:46:50.955Z,8.1
2023-03-27T02:49:44.754Z,5.2
2023-03-27T02:52:38.406Z,7.9
2023-03-27T02:55:30.156Z,5.3
2023-03-27T02:58:29.320Z,5.8
2023-03-27T03:01:22.956Z,6.8
2023-03-27T03:04:12.113Z,3.9
2023-03-27T03:07:04.534Z,6.7
2023-03-27T03:09:53.002Z,5.3
2023-03-27T03:12:41.939Z,5.5
2023-03-27T03:15:29.466Z,6.3
2023-03-27T03:18:17.007Z,4.6
2023-03-27T03:21:04.671Z,3.4
2023-03-27T03:23:58.090Z,3.5
2023-03-27T03:26:46.588Z,3.2
2023-03-27T03:29:34.881Z,3.9
2023-03-27T03:32:22.350Z,3
2023-03-27T03:35:11.053Z,5.7
2023-03-27T03:37:59.440Z,5.7
2023-03-27T03:40:48.429Z,4
2023-03-27T03:43:38.522Z,4.2
2023-03-27T03:46:26.111Z,6.2
2023-03-27T03:49:13.685Z,5.1
2023-03-27T03:52:04.311Z,6.5
2023-03-27T03:54:53.137Z,7.5
2023-03-27T03:57:41.782Z,9.1
2023-03-27T04:00:32.091Z,4.9
2023-03-27T04:03:22.891Z,9.5
2023-03-27T04:06:11.718Z,6.7
2023-03-27T04:09:02.210Z,5.6
2023-03-27T04:11:50.444Z,7
2023-03-27T04:14:39.817Z,5.6
2023-03-27T04:17:27.555Z,3.1
2023-03-27T04:20:17.849Z,5.6
2023-03-27T04:23:05.598Z,3.3
2023-03-27T04:25:55.064Z,1.4
2023-03-27T04:28:44.608Z,3.8
2023-03-27T04:31:36.318Z,5.1
2023-03-27T04:34:23.873Z,4.2
2023-03-27T04:37:11.621Z,2.9
2023-03-27T04:39:59.604Z,4.3
2023-03-27T04:42:49.651Z,4.8
2023-03-27T04:45:40.484Z,1.6
2023-03-27T04:48:29.452Z,4.6
2023-03-27T04:51:16.990Z,5.7
2023-03-27T04:54:04.729Z,3.9
2023-03-27T04:56:53.287Z,3.7
2023-03-27T04:59:42.061Z,2.5
2023-03-27T05:02:29.705Z,5.2
2023-03-27T05:05:18.192Z,3.5
2023-03-27T05:08:05.998Z,5.5
2023-03-27T05:10:53.945Z,5.9
2023-03-27T05:13:42.508Z,3.8
2023-03-27T05:16:32.322Z,2.7
2023-03-27T05:19:20.426Z,4.3
2023-03-27T05:22:08.699Z,3.2
2023-03-27T05:24:57.265Z,1.9
2023-03-27T05:27:44.833Z,3.6
2023-03-27T05:30:33.848Z,2.9
2023-03-27T05:33:21.784Z,3.8
2023-03-27T05:36:09.616Z,4.5
2023-03-27T05:38:57.358Z,5.7
2023-03-27T05:41:44.847Z,5.1
2023-03-27T05:44:32.642Z,4.9
2023-03-27T05:47:20.120Z,4.1
2023-03-27T05:50:07.650Z,1.6
2023-03-27T05:52:55.757Z,2.7
2023-03-27T05:55:45.775Z,2.9
2023-03-27T05:58:33.724Z,3
2023-03-27T06:01:21.984Z,2.5
2023-03-27T06:04:11.520Z,1.2
2023-03-27T06:07:00.534Z,2.6
2023-03-27T06:09:48.315Z,2.2
2023-03-27T06:12:36.202Z,2.5
2023-03-27T06:15:24.043Z,1
2023-03-27T06:18:13.799Z,2.6
2023-03-27T06:21:01.432Z,2.7
2023-03-27T06:23:50.305Z,1.7
2023-03-27T06:26:40.793Z,4.8
2023-03-27T06:29:28.274Z,2.7
2023-03-27T06:32:15.873Z,2
2023-03-27T06:35:03.485Z,1.4
2023-03-27T06:37:53.156Z,1.6
2023-03-27T06:40:43.708Z,2.3
2023-03-27T06:43:32.231Z,3.8
2023-03-27T06:46:19.885Z,1.3
2023-03-27T06:49:21.182Z,0.8
2023-03-27T06:52:08.842Z,1.5
2023-03-27T06:54:56.592Z,1.5
2023-03-27T06:57:44.277Z,3.4
2023-03-27T07:00:33.994Z,3
2023-03-27T07:03:23.724Z,3
2023-03-27T07:06:11.758Z,1.2
2023-03-27T07:09:00.894Z,2.6
2023-03-27T07:11:48.528Z,1.3
2023-03-27T07:14:36.692Z,1.9
2023-03-27T07:17:25.350Z,3.5
2023-03-27T07:20:16.052Z,4.6
2023-03-27T07:23:04.228Z,6.5
2023-03-27T07:25:51.809Z,3.4
2023-03-27T07:28:43.475Z,3.5
2023-03-27T07:31:51.075Z,1.1
2023-03-27T07:34:45.224Z,2.7
2023-03-27T07:37:33.887Z,2.8
2023-03-27T07:40:26.580Z,3.7
2023-03-27T07:43:21.526Z,2.1
2023-03-27T07:46:09.124Z,1.9
2023-03-27T07:48:57.088Z,1.6
2023-03-27T07:51:45.908Z,2.8
2023-03-27T07:54:33.414Z,1.6
2023-03-27T07:57:21.329Z,2.2
2023-03-27T08:00:09.102Z,3
2023-03-27T08:02:59.941Z,6
2023-03-27T08:05:51.887Z,2.1
2023-03-27T08:08:42.580Z,4.1
2023-03-27T08:11:31.189Z,2.5
2023-03-27T08:14:21.020Z,2.7
2023-03-27T08:17:16.128Z,2
2023-03-27T08:20:04.827Z,2.9
2023-03-27T08:22:53.959Z,3
2023-03-27T08:25:45.289Z,2.5
2023-03-27T08:28:35.041Z,2.7
2023-03-27T08:31:23.559Z,2.4
2023-03-27T08:34:15.116Z,2.6
2023-03-27T08:37:02.598Z,2.7
2023-03-27T08:39:50.262Z,2.7
2023-03-27T08:42:43.521Z,2.6
2023-03-27T08:45:35.182Z,4.1
2023-03-27T08:48:30.493Z,2.4
2023-03-27T08:51:24.193Z,3.1
2023-03-27T08:54:16.891Z,1.8
2023-03-27T08:57:08.038Z,2
2023-03-27T09:00:04.180Z,1.9
2023-03-27T09:02:59.984Z,3.2
2023-03-27T09:06:00.822Z,7.5
2023-03-27T09:08:54.554Z,2.1
2023-03-27T09:11:51.897Z,1.9
2023-03-27T09:14:51.223Z,1.6
2023-03-27T09:17:43.514Z,3.4
2023-03-27T09:20:34.935Z,2.8
2023-03-27T09:23:27.503Z,1.4
2023-03-27T09:26:22.805Z,1.4
2023-03-27T09:29:20.339Z,2.2
2023-03-27T09:32:11.381Z,2.2
2023-03-27T09:35:01.752Z,1.7
2023-03-27T09:37:50.615Z,1.3
2023-03-27T09:40:48.344Z,5
2023-03-27T09:43:43.069Z,4
2023-03-27T09:46:38.846Z,3.5
2023-03-27T09:49:31.194Z,1.5
2023-03-27T09:52:20.449Z,1.8
2023-03-27T09:55:23.402Z,4.4
2023-03-27T09:58:15.597Z,4.2
2023-03-27T10:01:14.561Z,4
2023-03-27T10:04:12.297Z,3.8
2023-03-27T10:07:03.234Z,1.3
2023-03-27T10:09:54.738Z,2
2023-03-27T10:12:56.595Z,2.7
2023-03-27T10:15:47.101Z,2.3
2023-03-27T10:18:34.638Z,3
2023-03-27T10:21:28.394Z,1.3
2023-03-27T10:24:19.348Z,1.9
2023-03-27T10:27:15.525Z,2.1
2023-03-27T10:30:08.615Z,2.4
2023-03-27T10:33:15.354Z,2.6
2023-03-27T10:36:15.598Z,2.7
2023-03-27T10:39:05.268Z,2.7
2023-03-27T10:41:59.222Z,3.2
2023-03-27T10:44:51.873Z,2.5
2023-03-27T10:47:42.131Z,3.8
2023-03-27T10:50:34.225Z,1.5
2023-03-27T10:53:37.914Z,3.7
2023-03-27T10:56:36.694Z,4.3
2023-03-27T10:59:41.970Z,4.5
2023-03-27T11:02:36.369Z,3.1
2023-03-27T11:05:31.311Z,3.8
2023-03-27T11:08:23.508Z,2.3
2023-03-27T11:11:17.121Z,4.6
2023-03-27T11:14:10.316Z,2.9
2023-03-27T11:17:05.527Z,5.8
2023-03-27T11:19:57.859Z,2.2
2023-03-27T11:22:53.139Z,2
2023-03-27T11:25:45.333Z,2.6
2023-03-27T11:28:36.683Z,4.6
2023-03-27T11:31:28.290Z,5.9
2023-03-27T11:34:29.390Z,2
2023-03-27T11:37:21.034Z,1.9
2023-03-27T11:40:14.211Z,5.5
2023-03-27T11:43:08.836Z,3.8
2023-03-27T11:45:58.584Z,3.2
2023-03-27T11:49:03.095Z,6.1
2023-03-27T11:52:10.059Z,2.6
2023-03-27T11:55:14.333Z,2.8
2023-03-27T11:58:11.579Z,1.5
2023-03-27T12:01:11.570Z,2.6
2023-03-27T12:04:07.118Z,2.6
2023-03-27T12:07:12.369Z,1.6
2023-03-27T12:10:12.574Z,3.1
2023-03-27T12:13:13.437Z,2.2
2023-03-27T12:16:43.677Z,2.6
2023-03-27T12:19:47.228Z,2.2
2023-03-27T12:22:51.585Z,3.2
2023-03-27T12:25:48.675Z,3.2
2023-03-27T12:28:55.477Z,3
2023-03-27T12:31:58.894Z,3.5
2023-03-27T12:35:04.000Z,4
2023-03-27T12:37:56.899Z,3.4
2023-03-27T12:40:47.760Z,2.3
2023-03-27T12:43:47.408Z,4.6
2023-03-27T12:46:40.885Z,3.6
2023-03-27T12:49:40.615Z,3.7
2023-03-27T12:52:42.713Z,3.7
2023-03-27T12:55:30.705Z,5.1
2023-03-27T12:58:21.869Z,5.1
2023-03-27T13:01:21.459Z,3.4
2023-03-27T13:04:30.559Z,5.7
2023-03-27T13:07:35.512Z,3.2
2023-03-27T13:10:35.543Z,2.6
2023-03-27T13:13:36.215Z,3.5
2023-03-27T13:16:50.506Z,3.5
2023-03-27T13:19:50.543Z,4.7
2023-03-27T13:22:52.728Z,2.5
2023-03-27T13:26:08.566Z,2.7
2023-03-27T13:29:09.617Z,2.7
2023-03-27T13:32:03.257Z,4.1
2023-03-27T13:35:15.578Z,2.7
2023-03-27T13:38:17.502Z,2.5
2023-03-27T13:41:33.743Z,3.1
2023-03-27T13:44:40.393Z,3.5
2023-03-27T13:47:35.848Z,5
2023-03-27T13:50:45.508Z,2.6
2023-03-27T13:53:53.956Z,4.7
2023-03-27T13:57:22.776Z,2.8
2023-03-27T14:00:28.519Z,1.4
2023-03-27T14:03:33.671Z,3.5
2023-03-27T14:06:47.877Z,1.7
2023-03-27T14:10:00.876Z,4.6
2023-03-27T14:13:11.338Z,3.8
2023-03-27T14:16:13.668Z,2.7
2023-03-27T14:19:26.139Z,3
2023-03-27T14:22:36.781Z,3
2023-03-27T14:25:32.484Z,3.7
2023-03-27T14:31:08.805Z,3.7
2023-03-27T14:34:03.386Z,4.9
2023-03-27T14:37:01.179Z,6
2023-03-27T14:40:08.904Z,5.6
2023-03-27T14:45:53.193Z,5.1
2023-03-27T14:48:45.034Z,5
2023-03-27T14:51:37.885Z,4.7
2023-03-27T14:54:26.731Z,3.3
2023-03-27T14:57:15.627Z,2.8
2023-03-27T15:00:05.393Z,4.7
2023-03-27T15:03:02.037Z,1.6
2023-03-27T15:05:58.431Z,3.2
2023-03-27T15:08:49.254Z,2.1
2023-03-27T15:11:40.338Z,2.1
2023-03-27T15:14:33.115Z,2.1
2023-03-27T15:17:23.010Z,1.9
2023-03-27T15:20:12.831Z,2.8
2023-03-27T15:23:04.883Z,1.9
2023-03-27T15:26:03.748Z,2.2
2023-03-27T15:28:59.785Z,2.8
2023-03-27T15:31:58.499Z,2.4
2023-03-27T15:34:53.440Z,2.4
2023-03-27T15:37:43.864Z,4.3
2023-03-27T15:40:32.468Z,2.6
2023-03-27T15:43:21.780Z,2.8
2023-03-27T15:46:12.453Z,4.1
2023-03-27T15:49:02.772Z,3.5
2023-03-27T15:52:10.558Z,2.7
2023-03-27T15:55:18.779Z,3.8
2023-03-27T15:58:25.785Z,3.7
2023-03-27T16:01:25.637Z,1.4
2023-03-27T16:04:17.035Z,4.6
2023-03-27T16:07:07.170Z,1.5
2023-03-27T16:10:03.058Z,3
2023-03-27T16:12:53.797Z,2.8
2023-03-27T16:15:45.467Z,3.4
2023-03-27T16:18:42.534Z,3.6
2023-03-27T16:21:33.734Z,3.7
2023-03-27T16:24:21.797Z,4.6
2023-03-27T16:27:09.278Z,3.5
2023-03-27T16:29:57.706Z,3
2023-03-27T16:32:46.006Z,4.6
2023-03-27T16:35:33.713Z,2.6
2023-03-27T16:38:21.440Z,3.7
2023-03-27T16:41:09.094Z,2.8
2023-03-27T16:43:58.800Z,3.8
2023-03-27T16:46:46.674Z,3.9
2023-03-27T16:49:35.156Z,4.3
2023-03-27T16:52:22.708Z,3.7
2023-03-27T16:55:10.583Z,2.7
2023-03-27T16:57:59.506Z,2.8
2023-03-27T17:00:47.885Z,2.1
2023-03-27T17:03:36.044Z,3.2
2023-03-27T17:06:24.161Z,4.1
2023-03-27T17:09:11.712Z,4
2023-03-27T17:12:00.628Z,5.7
2023-03-27T17:14:48.815Z,4.3
2023-03-27T17:17:37.190Z,6.1
2023-03-27T17:20:24.872Z,5.8
2023-03-27T17:23:12.850Z,5.6
2023-03-27T17:26:02.212Z,7.8
2023-03-27T17:28:50.543Z,9.7
2023-03-27T17:31:38.539Z,7.9
2023-03-27T17:34:26.239Z,7.8
2023-03-27T17:37:19.695Z,9.9
2023-03-27T17:40:07.994Z,10.2
2023-03-27T17:42:57.163Z,10.6
2023-03-27T17:45:45.122Z,10.4
2023-03-27T17:48:33.748Z,12.7
2023-03-27T17:51:21.983Z,13.1
2023-03-27T17:54:09.569Z,12.4
2023-03-27T17:56:57.335Z,11.6
2023-03-27T17:59:45.051Z,17.2
2023-03-27T18:02:32.779Z,11
2023-03-27T18:05:21.362Z,10.4
2023-03-27T18:08:09.406Z,9.7
2023-03-27T18:10:59.143Z,8.3
2023-03-27T18:13:46.774Z,10
2023-03-27T18:16:37.583Z,8.9
2023-03-27T18:19:25.371Z,10.4
2023-03-27T18:22:13.469Z,11.3
2023-03-27T18:25:02.186Z,11.4
2023-03-27T18:27:51.405Z,11.3
2023-03-27T18:30:38.979Z,9.8
2023-03-27T18:33:28.867Z,10.5
2023-03-27T18:36:17.245Z,12.3
2023-03-27T18:39:05.045Z,9.8
2023-03-27T18:41:52.570Z,14.4
2023-03-27T18:44:43.173Z,14.7
2023-03-27T18:47:31.074Z,10.2
2023-03-27T18:50:19.988Z,11.6
2023-03-27T18:53:07.599Z,11.5
2023-03-27T18:55:55.579Z,10.9
2023-03-27T18:58:43.714Z,12.6
2023-03-27T19:01:31.911Z,19.9
2023-03-27T19:04:19.487Z,24.6
2023-03-27T19:07:08.736Z,20.9
2023-03-27T19:09:57.213Z,27.4
2023-03-27T19:12:45.117Z,28
2023-03-27T19:15:34.443Z,21
2023-03-27T19:18:22.178Z,24.2
2023-03-27T19:21:13.140Z,21.7
2023-03-27T19:24:02.013Z,20.7
2023-03-27T19:26:51.942Z,17.9
2023-03-27T19:29:39.429Z,19.4
2023-03-27T19:32:27.041Z,26.4
2023-03-27T19:35:14.935Z,31.9
2023-03-27T19:38:04.646Z,34.7
2023-03-27T19:40:52.261Z,41.6
2023-03-27T19:43:40.516Z,48.1
2023-03-27T19:46:28.632Z,46.3
2023-03-27T19:49:16.859Z,55
2023-03-27T19:52:05.518Z,63.3
2023-03-27T19:54:53.755Z,52.1
2023-03-27T19:57:41.282Z,54.8
2023-03-27T20:00:31.282Z,40.6
2023-03-27T20:03:19.822Z,40.9
2023-03-27T20:06:10.720Z,42.4
2023-03-27T20:09:04.119Z,39.7
2023-03-27T20:11:52.337Z,45
2023-03-27T20:14:40.442Z,41.7
2023-03-27T20:17:28.663Z,36.5
2023-03-27T20:20:16.652Z,42.9
2023-03-27T20:23:04.549Z,41.8
2023-03-27T20:25:52.420Z,46.2
2023-03-27T20:28:41.017Z,49.8
2023-03-27T20:31:28.656Z,48.7
2023-03-27T20:34:16.528Z,45.4
2023-03-27T20:37:07.005Z,39.9
2023-03-27T20:39:56.354Z,34.8
2023-03-27T20:42:46.370Z,38.4
2023-03-27T20:45:38.815Z,32.8
2023-03-27T20:48:27.850Z,31.1
2023-03-27T20:51:25.208Z,40
2023-03-27T20:54:13.697Z,33.4
2023-03-27T20:57:02.473Z,29
2023-03-27T20:59:50.883Z,29.2
2023-03-27T21:02:39.081Z,26.5
2023-03-27T21:05:26.838Z,24.2
2023-03-27T21:08:14.772Z,22.5
2023-03-27T21:11:03.480Z,20.9
2023-03-27T21:13:52.427Z,22.4
2023-03-27T21:16:40.307Z,21.5
2023-03-27T21:19:28.180Z,18.8
2023-03-27T21:22:16.281Z,21.4
2023-03-27T21:25:04.307Z,15.2
2023-03-27T21:27:52.898Z,23.4
2023-03-27T21:30:46.599Z,19.8
2023-03-27T21:33:35.897Z,21.3
2023-03-27T21:36:24.868Z,20.2
2023-03-27T21:39:13.848Z,19.7
2023-03-27T21:42:02.474Z,25.3
2023-03-27T21:44:53.930Z,14.9
2023-03-27T21:47:47.875Z,21.7
2023-03-27T21:50:37.381Z,17
2023-03-27T21:53:24.996Z,15.6
2023-03-27T21:56:13.692Z,12.5
2023-03-27T21:59:02.360Z,15.9
2023-03-27T22:01:50.158Z,13.5
2023-03-27T22:04:37.863Z,13.1
2023-03-27T22:07:25.545Z,11.9
2023-03-27T22:10:14.103Z,19.3
2023-03-27T22:13:03.346Z,12.2
2023-03-27T22:15:51.193Z,11.3
2023-03-27T22:18:39.278Z,13.1
2023-03-27T22:21:27.296Z,9
2023-03-27T22:24:15.931Z,14.7
2023-03-27T22:27:04.674Z,14.6
2023-03-27T22:29:52.280Z,12.2
2023-03-27T22:32:40.003Z,11.8
2023-03-27T22:35:28.225Z,13
2023-03-27T22:38:16.394Z,15.3
2023-03-27T22:41:04.530Z,9.9
2023-03-27T22:43:54.141Z,10.1
2023-03-27T22:46:44.576Z,11.1
2023-03-27T22:49:32.172Z,11.2
2023-03-27T22:52:20.790Z,8
2023-03-27T22:55:08.448Z,8
2023-03-27T22:57:55.935Z,8.9
2023-03-27T23:00:43.538Z,6.4
2023-03-27T23:03:32.362Z,9.4
2023-03-27T23:06:20.175Z,8.6
2023-03-27T23:09:09.240Z,8.5
2023-03-27T23:11:56.705Z,5.9
2023-03-27T23:14:44.359Z,4.4
2023-03-27T23:17:31.824Z,9.5
2023-03-27T23:20:19.443Z,7.4
2023-03-27T23:23:07.266Z,7.5
2023-03-27T23:25:54.850Z,8.4
2023-03-27T23:28:42.835Z,5.6
2023-03-27T23:31:30.676Z,7.6
2023-03-27T23:34:18.254Z,3.3
2023-03-27T23:37:05.886Z,4.7
2023-03-27T23:39:53.379Z,5.5
2023-03-27T23:42:40.851Z,3.8
2023-03-27T23:45:28.332Z,2.9
2023-03-27T23:48:16.110Z,3.1
2023-03-27T23:51:04.964Z,1.4
2023-03-27T23:53:54.007Z,3.3
2023-03-27T23:56:41.600Z,3.1
2023-03-27T23:59:29.262Z,2
